Time;durP1;ratioP1;P1;durP2;ratioP2;P2;SDS_P1;SDS_P2;PMS_P1;PMS_P2;Temp;Humidity;BMP_temperature;BMP_pressure;BME280_temperature;BME280_humidity;BME280_pressure;Samples;Min_cycle;Max_cycle;Signal;HPM_P1;HPM_P2
2023/06/11 00:00:46;;;;;;;0.80;0.60;;;;;;;23.80;100.00;101555.25;10451421;28;20124;-79
2023/06/11 00:05:48;;;;;;;0.45;0.40;;;;;;;23.75;100.00;101557.13;10432799;28;20061;-79
2023/06/11 00:10:50;;;;;;;0.70;0.50;;;;;;;24.02;100.00;101553.09;10449576;28;20563;-78
2023/06/11 00:15:51;;;;;;;0.08;0.05;;;;;;;24.09;100.00;101553.84;10431132;28;20063;-79
2023/06/11 00:20:56;;;;;;;0.47;0.40;;;;;;;23.29;100.00;101561.41;10450739;28;20044;-80
2023/06/11 00:25:58;;;;;;;0.90;0.65;;;;;;;23.66;100.00;101558.13;10456639;28;20053;-78
2023/06/11 00:31:00;;;;;;;0.95;0.68;;;;;;;23.84;100.00;101558.69;10436367;28;20045;-79
2023/06/11 00:36:02;;;;;;;0.40;0.30;;;;;;;23.86;100.00;101556.91;10465871;28;20059;-80
2023/06/11 00:41:04;;;;;;;0.65;0.45;;;;;;;24.13;100.00;101555.50;10473403;28;20047;-79
2023/06/11 00:46:10;;;;;;;1.65;0.50;;;;;;;24.28;100.00;101550.81;10465413;28;20041;-79
2023/06/11 00:51:12;;;;;;;1.20;0.60;;;;;;;24.33;100.00;101544.56;10431590;28;20045;-79
2023/06/11 00:56:17;;;;;;;0.45;0.30;;;;;;;24.02;100.00;101550.44;10462519;28;20072;-79
2023/06/11 01:01:26;;;;;;;0.22;0.22;;;;;;;24.21;100.00;101547.47;10450007;28;20079;-79
2023/06/11 01:06:33;;;;;;;0.85;0.38;;;;;;;23.87;100.00;101548.97;10440528;28;20488;-79
2023/06/11 01:11:38;;;;;;;0.35;0.22;;;;;;;24.01;100.00;101540.84;10467391;28;20140;-80
2023/06/11 01:16:52;;;;;;;0.47;0.20;;;;;;;23.99;100.00;101547.91;10467983;28;20052;-79
2023/06/11 01:21:59;;;;;;;0.10;0.10;;;;;;;23.73;100.00;101546.59;10438227;28;20052;-80
2023/06/11 01:27:29;;;;;;;0.15;0.15;;;;;;;23.01;100.00;101540.81;10453767;28;20056;-79
2023/06/11 01:32:31;;;;;;;0.52;0.50;;;;;;;23.07;100.00;101551.22;10452920;28;20037;-79
2023/06/11 01:37:37;;;;;;;0.10;0.10;;;;;;;22.94;100.00;101566.31;10452843;28;20037;-80
2023/06/11 01:42:40;;;;;;;0.32;0.15;;;;;;;22.55;100.00;101557.25;10446118;28;20496;-80
2023/06/11 01:47:44;;;;;;;0.20;0.17;;;;;;;22.60;100.00;101555.44;10453835;28;20049;-80
2023/06/11 01:52:47;;;;;;;0.35;0.30;;;;;;;22.77;100.00;101563.94;10475515;28;20454;-80
2023/06/11 01:57:49;;;;;;;0.25;0.10;;;;;;;22.48;100.00;101567.84;10453332;28;20049;-80
2023/06/11 02:02:51;;;;;;;0.45;0.30;;;;;;;22.30;100.00;101565.44;10438695;28;20496;-78
2023/06/11 02:07:53;;;;;;;0.32;0.30;;;;;;;22.68;100.00;101557.94;10453515;28;20045;-80
2023/06/11 02:12:55;;;;;;;1.17;0.22;;;;;;;22.55;100.00;101560.75;10451165;28;20045;-80
2023/06/11 02:17:57;;;;;;;0.47;0.47;;;;;;;21.81;100.00;101562.47;10444996;28;20045;-80
2023/06/11 02:22:59;;;;;;;0.20;0.10;;;;;;;21.89;100.00;101572.91;10434425;28;20128;-80
2023/06/11 02:28:02;;;;;;;0.28;0.28;;;;;;;21.84;100.00;101567.69;10452047;28;20128;-80
2023/06/11 02:33:04;;;;;;;0.40;0.22;;;;;;;21.56;100.00;101559.19;10440564;28;20040;-80
2023/06/11 02:38:08;;;;;;;1.65;0.63;;;;;;;21.75;100.00;101559.91;10434257;28;20041;-79
2023/06/11 02:43:10;;;;;;;0.32;0.13;;;;;;;22.01;100.00;101557.00;10438932;28;20059;-79
2023/06/11 02:48:12;;;;;;;1.25;0.50;;;;;;;21.87;100.00;101548.44;10434325;28;20033;-80
2023/06/11 02:53:13;;;;;;;0.55;0.17;;;;;;;21.52;100.00;101553.13;10437177;28;20128;-79
2023/06/11 02:58:15;;;;;;;1.05;0.32;;;;;;;21.70;100.00;101551.25;10449932;28;20095;-80
2023/06/11 03:03:17;;;;;;;0.55;0.38;;;;;;;22.17;100.00;101552.44;10432472;28;20052;-80
2023/06/11 03:08:21;;;;;;;0.50;0.35;;;;;;;21.30;100.00;101556.81;10436812;28;20037;-80
2023/06/11 03:13:23;;;;;;;0.10;0.10;;;;;;;20.96;100.00;101555.31;10452627;28;20040;-80
2023/06/11 03:18:27;;;;;;;0.40;0.38;;;;;;;21.16;100.00;101549.94;10440234;28;20045;-80
2023/06/11 03:23:29;;;;;;;0.75;0.45;;;;;;;21.08;100.00;101555.22;10450380;28;20060;-80
2023/06/11 03:28:32;;;;;;;0.30;0.30;;;;;;;21.17;100.00;101556.91;10455182;28;20049;-79
2023/06/11 03:33:33;;;;;;;0.47;0.20;;;;;;;21.08;100.00;101547.38;10448619;28;20045;-80
2023/06/11 03:38:35;;;;;;;0.28;0.10;;;;;;;21.01;100.00;101556.16;10423102;28;20063;-80
2023/06/11 03:43:38;;;;;;;0.40;0.30;;;;;;;21.35;100.00;101555.00;10447628;28;20052;-80
2023/06/11 03:48:40;;;;;;;0.52;0.40;;;;;;;21.26;100.00;101552.50;10445794;28;20053;-80
2023/06/11 03:53:41;;;;;;;0.98;0.30;;;;;;;21.37;100.00;101553.25;10435311;28;20052;-80
2023/06/11 03:58:43;;;;;;;0.30;0.20;;;;;;;21.65;100.00;101556.53;10436960;28;20045;-80
2023/06/11 04:03:45;;;;;;;0.43;0.35;;;;;;;21.34;100.00;101558.50;10431179;28;20415;-79
2023/06/11 04:08:47;;;;;;;0.93;0.38;;;;;;;21.50;100.00;101564.50;10432575;28;20427;-80
2023/06/11 04:13:50;;;;;;;0.73;0.50;;;;;;;21.83;100.00;101567.69;10446845;28;20053;-79
2023/06/11 04:18:52;;;;;;;0.30;0.20;;;;;;;21.77;100.00;101568.66;10439699;28;20049;-79
2023/06/11 04:23:54;;;;;;;1.15;0.60;;;;;;;21.89;100.00;101561.53;10439313;28;20083;-79
2023/06/11 04:28:56;;;;;;;0.93;0.60;;;;;;;22.02;100.00;101565.75;10449806;28;20048;-80
2023/06/11 04:34:06;;;;;;;0.40;0.40;;;;;;;22.45;100.00;101573.13;10450985;28;20458;-79
2023/06/11 04:39:10;;;;;;;1.38;0.60;;;;;;;22.54;100.00;101566.00;10461953;28;20052;-79
2023/06/11 04:44:13;;;;;;;1.10;0.77;;;;;;;22.59;100.00;101564.22;10463045;28;20094;-79
2023/06/11 04:49:20;;;;;;;0.52;0.50;;;;;;;22.76;100.00;101564.81;10448580;28;20068;-79
2023/06/11 04:54:24;;;;;;;0.20;0.20;;;;;;;22.73;100.00;101567.50;10481037;28;20041;-78
2023/06/11 04:59:26;;;;;;;0.30;0.25;;;;;;;22.72;100.00;101580.63;10446678;28;20404;-78
2023/06/11 05:04:28;;;;;;;2.03;0.50;;;;;;;22.69;100.00;101571.06;10463173;28;20045;-78
2023/06/11 05:09:31;;;;;;;0.85;0.55;;;;;;;23.50;100.00;101575.97;10462059;28;20068;-80
2023/06/11 05:14:34;;;;;;;0.88;0.32;;;;;;;23.35;100.00;101587.59;10460514;28;20041;-79
2023/06/11 05:19:36;;;;;;;0.10;0.10;;;;;;;22.95;100.00;101588.22;10449703;28;20045;-79
2023/06/11 05:24:41;;;;;;;0.95;0.57;;;;;;;23.24;100.00;101585.13;10463527;28;20496;-78
2023/06/11 05:29:43;;;;;;;1.38;0.55;;;;;;;23.27;100.00;101579.00;10452628;28;20462;-78
2023/06/11 05:34:49;;;;;;;0.85;0.60;;;;;;;23.87;100.00;101580.53;10463229;28;20049;-79
2023/06/11 05:39:51;;;;;;;1.10;0.57;;;;;;;23.94;100.00;101589.22;10449568;28;20506;-79
2023/06/11 05:44:56;;;;;;;0.35;0.35;;;;;;;24.01;100.00;101588.22;10461350;28;20048;-78
2023/06/11 05:50:01;;;;;;;0.47;0.38;;;;;;;24.17;100.00;101587.88;10455192;28;20079;-79
2023/06/11 05:55:06;;;;;;;1.23;1.05;;;;;;;24.27;100.00;101594.72;10455285;28;20055;-78
2023/06/11 06:00:12;;;;;;;1.02;0.80;;;;;;;24.84;100.00;101588.25;10468637;28;20159;-78
2023/06/11 06:05:19;;;;;;;1.05;0.65;;;;;;;24.61;100.00;101601.88;10439912;28;20627;-78
2023/06/11 06:10:21;;;;;;;1.33;0.63;;;;;;;25.11;100.00;101592.91;10467076;28;20327;-78
2023/06/11 06:15:23;;;;;;;0.98;0.82;;;;;;;25.18;100.00;101599.75;10439136;28;20051;-79
2023/06/11 06:20:25;;;;;;;0.57;0.50;;;;;;;25.57;100.00;101602.34;10442726;28;20460;-78
2023/06/11 06:25:27;;;;;;;0.28;0.25;;;;;;;25.76;100.00;101601.84;10460298;28;20076;-78
2023/06/11 06:30:32;;;;;;;0.52;0.50;;;;;;;25.31;100.00;101606.47;10468570;28;20040;-78
2023/06/11 06:35:35;;;;;;;1.42;1.10;;;;;;;25.80;100.00;101608.78;10435213;28;20106;-78
2023/06/11 06:40:38;;;;;;;0.88;0.55;;;;;;;25.97;100.00;101611.81;10439404;28;20073;-79
2023/06/11 06:45:40;;;;;;;0.50;0.40;;;;;;;26.05;100.00;101619.53;10464346;28;20802;-78
2023/06/11 06:50:54;;;;;;;1.00;0.70;;;;;;;26.69;100.00;101612.44;10441227;28;20032;-78
2023/06/11 06:55:59;;;;;;;1.65;0.85;;;;;;;26.73;99.79;101612.28;10461398;28;20048;-78
2023/06/11 07:01:03;;;;;;;2.22;0.45;;;;;;;28.16;100.00;101603.19;10435754;28;20047;-78
2023/06/11 07:06:05;;;;;;;1.08;0.98;;;;;;;28.59;99.18;101602.44;10445538;28;20059;-78
2023/06/11 07:11:07;;;;;;;0.77;0.70;;;;;;;28.61;95.24;101605.91;10446251;28;20119;-78
2023/06/11 07:16:13;;;;;;;2.25;0.50;;;;;;;28.86;94.91;101607.59;10455605;28;20053;-78
2023/06/11 07:21:23;;;;;;;0.90;0.70;;;;;;;28.81;89.83;101613.97;10452158;28;20076;-78
2023/06/11 07:26:25;;;;;;;2.85;0.70;;;;;;;30.47;98.72;101612.22;10436685;28;20045;-78
2023/06/11 07:31:27;;;;;;;1.13;0.80;;;;;;;30.03;87.24;101613.34;10459014;28;20041;-77
2023/06/11 07:36:30;;;;;;;0.65;0.50;;;;;;;29.33;85.77;101612.78;10469241;28;20049;-78
2023/06/11 07:41:32;;;;;;;1.70;0.88;;;;;;;30.26;87.13;101618.53;10439449;28;20075;-78
2023/06/11 07:46:34;;;;;;;1.00;0.77;;;;;;;30.54;83.56;101616.34;10443844;28;20091;-76
2023/06/11 07:51:36;;;;;;;0.60;0.60;;;;;;;31.14;84.13;101611.75;10436891;28;20041;-77
2023/06/11 07:56:41;;;;;;;0.90;0.63;;;;;;;30.98;85.51;101608.94;10450180;28;20106;-78
2023/06/11 08:01:43;;;;;;;1.58;0.85;;;;;;;30.83;82.97;101618.53;10454829;28;20051;-78
2023/06/11 08:06:44;;;;;;;1.00;0.77;;;;;;;31.53;82.31;101613.31;10442581;28;20569;-78
2023/06/11 08:11:46;;;;;;;0.68;0.50;;;;;;;31.63;80.46;101614.56;10454253;28;20037;-78
2023/06/11 08:16:48;;;;;;;0.88;0.50;;;;;;;30.97;76.27;101616.06;10457576;28;20044;-78
2023/06/11 08:21:50;;;;;;;1.52;0.70;;;;;;;32.32;79.61;101611.84;10451521;28;20091;-78
2023/06/11 08:26:51;;;;;;;0.55;0.55;;;;;;;32.35;76.13;101609.03;10454521;28;20049;-78
2023/06/11 08:31:53;;;;;;;0.57;0.47;;;;;;;32.19;74.27;101608.97;10459397;28;20056;-77
2023/06/11 08:36:54;;;;;;;0.40;0.40;;;;;;;32.97;75.28;101599.38;10445733;28;20419;-78
2023/06/11 08:41:56;;;;;;;0.50;0.50;;;;;;;32.00;73.35;101606.47;10457662;28;20060;-78
2023/06/11 08:47:02;;;;;;;0.20;0.20;;;;;;;32.90;73.68;101602.41;10451567;28;20059;-78
2023/06/11 08:52:05;;;;;;;0.10;0.10;;;;;;;33.03;71.97;101597.22;10422272;28;20407;-78
2023/06/11 08:57:07;;;;;;;0.50;0.30;;;;;;;32.84;71.53;101597.41;10435436;28;20448;-78
2023/06/11 09:02:08;;;;;;;0.50;0.50;;;;;;;32.37;71.65;101598.25;10442229;28;20739;-78
2023/06/11 09:07:10;;;;;;;0.90;0.68;;;;;;;33.22;68.74;101597.00;10430882;28;20056;-78
2023/06/11 09:12:13;;;;;;;0.52;0.43;;;;;;;32.87;66.68;101591.91;10434308;28;20121;-79
2023/06/11 09:17:15;;;;;;;1.85;1.55;;;;;;;33.95;70.19;101594.47;10449660;28;20077;-78
2023/06/11 09:22:25;;;;;;;0.55;0.40;;;;;;;33.04;65.27;101590.06;10459646;28;20446;-78
2023/06/11 09:27:27;;;;;;;1.00;0.57;;;;;;;33.56;62.33;101590.59;10466167;28;20127;-78
2023/06/11 09:32:29;;;;;;;0.17;0.17;;;;;;;34.24;65.50;101599.78;10441000;28;20037;-78
2023/06/11 09:37:42;;;;;;;0.77;0.63;;;;;;;33.26;63.25;101599.47;10456257;28;20069;-77
2023/06/11 09:42:46;;;;;;;0.75;0.52;;;;;;;33.69;68.11;101594.25;10443538;28;20049;-78
2023/06/11 09:47:48;;;;;;;0.68;0.40;;;;;;;34.08;60.60;101594.56;10444103;28;20069;-78
2023/06/11 09:52:51;;;;;;;0.98;0.70;;;;;;;34.48;61.09;101598.25;10442219;28;20037;-78
2023/06/11 09:57:53;;;;;;;1.35;0.43;;;;;;;33.69;58.64;101599.59;10450600;28;20403;-77
2023/06/11 10:02:55;;;;;;;1.00;0.75;;;;;;;33.63;58.81;101598.16;10442630;28;20510;-79
2023/06/11 10:08:05;;;;;;;0.65;0.55;;;;;;;33.78;57.87;101604.34;10453787;28;20072;-76
2023/06/11 10:13:06;;;;;;;1.63;0.50;;;;;;;33.95;59.85;101606.03;10459152;28;20523;-77
2023/06/11 10:18:13;;;;;;;0.57;0.57;;;;;;;33.78;59.59;101599.00;10475447;28;20395;-77
2023/06/11 10:23:14;;;;;;;0.55;0.35;;;;;;;34.64;54.92;101589.22;10457933;28;20514;-78
2023/06/11 10:28:16;;;;;;;1.63;0.80;;;;;;;34.04;55.28;101596.56;10461028;28;20140;-78
2023/06/11 10:33:18;;;;;;;0.50;0.32;;;;;;;34.79;60.42;101593.56;10467798;28;20874;-77
2023/06/11 10:38:29;;;;;;;0.17;0.17;;;;;;;34.31;53.14;101606.44;10457837;28;20083;-78
2023/06/11 10:43:34;;;;;;;0.65;0.30;;;;;;;33.92;51.32;101598.19;10453933;28;20048;-77
2023/06/11 10:48:35;;;;;;;0.55;0.30;;;;;;;34.12;56.78;101598.75;10478719;28;20056;-78
2023/06/11 10:53:40;;;;;;;0.40;0.30;;;;;;;34.38;56.46;101591.75;10481286;28;20056;-78
2023/06/11 10:58:49;;;;;;;0.60;0.35;;;;;;;34.35;56.49;101586.59;10456854;28;20086;-77
2023/06/11 11:03:52;;;;;;;2.85;1.25;;;;;;;33.74;52.56;101596.59;10448754;28;20136;-78
2023/06/11 11:08:59;;;;;;;0.80;0.45;;;;;;;34.40;57.79;101595.19;10447612;28;20045;-77
2023/06/11 11:14:01;;;;;;;0.45;0.40;;;;;;;34.33;57.03;101593.84;10473080;28;20048;-78
2023/06/11 11:19:02;;;;;;;0.32;0.20;;;;;;;33.67;56.40;101580.13;10436248;28;20037;-78
2023/06/11 11:24:12;;;;;;;0.85;0.65;;;;;;;34.48;59.06;101579.50;10478078;28;20045;-78
2023/06/11 11:29:14;;;;;;;0.57;0.57;;;;;;;34.89;57.38;101563.50;10447969;28;20075;-78
2023/06/11 11:34:17;;;;;;;0.28;0.28;;;;;;;33.78;51.23;101574.09;10439362;28;20458;-77
2023/06/11 11:39:19;;;;;;;0.47;0.45;;;;;;;32.99;54.65;101568.97;10433028;28;20053;-76
2023/06/11 11:44:22;;;;;;;0.32;0.20;;;;;;;34.39;55.76;101560.53;10454536;28;20051;-76
2023/06/11 11:49:32;;;;;;;0.52;0.30;;;;;;;34.09;55.44;101559.69;10475131;28;20123;-76
2023/06/11 11:54:34;;;;;;;0.95;0.43;;;;;;;32.98;52.69;101559.28;10457948;28;20049;-75
2023/06/11 11:59:40;;;;;;;0.43;0.35;;;;;;;33.70;56.05;101553.19;10424545;28;20049;-76
2023/06/11 12:04:46;;;;;;;0.38;0.35;;;;;;;33.80;55.60;101554.34;10471950;28;20049;-76
2023/06/11 12:09:50;;;;;;;0.40;0.40;;;;;;;34.45;53.46;101555.63;10457472;28;20392;-75
2023/06/11 12:14:52;;;;;;;0.88;0.57;;;;;;;33.18;54.75;101541.19;10437123;28;20525;-76
2023/06/11 12:19:53;;;;;;;0.68;0.50;;;;;;;33.78;57.03;101550.91;10437866;28;20045;-75
2023/06/11 12:24:55;;;;;;;0.52;0.43;;;;;;;34.19;48.40;101543.06;10463053;28;20495;-77
2023/06/11 12:29:57;;;;;;;0.52;0.52;;;;;;;34.28;49.15;101547.81;10448885;28;20044;-76
2023/06/11 12:34:59;;;;;;;0.30;0.30;;;;;;;33.48;52.77;101535.81;10429443;28;20049;-75
2023/06/11 12:40:00;;;;;;;1.73;1.23;;;;;;;32.93;56.38;101541.81;10454468;28;20047;-77
2023/06/11 12:45:03;;;;;;;1.15;0.60;;;;;;;34.03;57.66;101537.84;10423233;28;20064;-76
2023/06/11 12:50:05;;;;;;;0.77;0.70;;;;;;;33.92;51.18;101534.03;10454063;28;20507;-76
2023/06/11 12:55:07;;;;;;;0.35;0.35;;;;;;;33.63;48.55;101533.16;10438615;28;20056;-75
2023/06/11 13:00:11;;;;;;;0.25;0.25;;;;;;;32.68;50.58;101536.06;10443853;28;20052;-76
2023/06/11 13:05:13;;;;;;;0.50;0.50;;;;;;;33.27;52.11;101529.97;10458947;28;20049;-75
2023/06/11 13:10:16;;;;;;;1.10;0.77;;;;;;;33.47;50.07;101520.75;10461491;28;20052;-78
2023/06/11 13:15:18;;;;;;;5.15;0.63;;;;;;;33.35;51.85;101526.84;10461057;28;20095;-77
2023/06/11 13:20:20;;;;;;;0.30;0.28;;;;;;;32.63;53.26;101523.94;10440687;28;20508;-76
2023/06/11 13:25:23;;;;;;;0.65;0.50;;;;;;;33.46;53.25;101513.72;10456874;28;20063;-76
2023/06/11 13:30:25;;;;;;;0.43;0.20;;;;;;;32.97;51.78;101509.50;10456441;28;20127;-76
2023/06/11 13:35:28;;;;;;;0.77;0.52;;;;;;;33.38;53.12;101516.00;10461416;28;20120;-78
2023/06/11 13:40:29;;;;;;;0.50;0.30;;;;;;;33.13;50.56;101506.75;10434685;28;20052;-79
2023/06/11 13:45:31;;;;;;;0.63;0.60;;;;;;;33.24;52.68;101508.78;10446717;28;20041;-77
2023/06/11 13:50:33;;;;;;;1.83;0.90;;;;;;;32.70;52.11;101514.63;10457692;28;20065;-78
2023/06/11 13:55:35;;;;;;;1.15;0.60;;;;;;;32.38;52.07;101525.34;10457358;28;20041;-77
2023/06/11 14:00:36;;;;;;;0.88;0.50;;;;;;;32.10;52.73;101527.69;10442726;28;20033;-78
2023/06/11 14:05:38;;;;;;;0.40;0.32;;;;;;;33.29;54.97;101512.03;10457193;28;20123;-77
2023/06/11 14:10:40;;;;;;;0.10;0.10;;;;;;;33.83;52.79;101505.19;10455452;28;20052;-76
2023/06/11 14:15:41;;;;;;;0.52;0.40;;;;;;;32.97;52.58;101500.63;10445268;28;20049;-77
2023/06/11 14:20:43;;;;;;;0.80;0.75;;;;;;;32.63;50.64;101505.25;10456221;28;20056;-79
2023/06/11 14:25:45;;;;;;;7.22;0.40;;;;;;;32.77;51.76;101505.34;10469661;28;20072;-77
2023/06/11 14:30:49;;;;;;;2.08;0.52;;;;;;;32.92;51.59;101497.38;10455238;28;20045;-77
2023/06/11 14:35:52;;;;;;;0.80;0.32;;;;;;;32.66;51.11;101497.06;10480412;28;20484;-76
2023/06/11 14:40:53;;;;;;;0.98;0.50;;;;;;;33.37;54.87;101482.22;10455265;28;20091;-77
2023/06/11 14:45:55;;;;;;;0.65;0.60;;;;;;;32.61;53.04;101489.34;10438691;28;20446;-77
2023/06/11 14:50:57;;;;;;;1.33;0.30;;;;;;;32.77;50.47;101478.66;10445245;28;20040;-78
2023/06/11 14:55:58;;;;;;;0.45;0.40;;;;;;;32.74;50.44;101473.47;10444426;28;20071;-77
2023/06/11 15:01:02;;;;;;;0.30;0.30;;;;;;;32.53;48.98;101476.44;10455214;28;20464;-77
2023/06/11 15:06:05;;;;;;;0.73;0.50;;;;;;;32.88;51.53;101460.19;10469650;28;20053;-78
2023/06/11 15:11:06;;;;;;;0.38;0.20;;;;;;;32.10;47.15;101460.22;10469494;28;20369;-78
2023/06/11 15:16:08;;;;;;;0.73;0.38;;;;;;;32.67;48.72;101461.44;10455822;28;20044;-76
2023/06/11 15:21:10;;;;;;;0.93;0.85;;;;;;;32.74;50.72;101457.47;10453615;28;20052;-78
2023/06/11 15:26:11;;;;;;;0.80;0.55;;;;;;;32.50;47.43;101462.44;10435123;28;20392;-77
2023/06/11 15:31:14;;;;;;;0.50;0.35;;;;;;;32.65;47.17;101448.22;10453058;28;20555;-77
2023/06/11 15:36:15;;;;;;;0.38;0.25;;;;;;;32.79;46.73;101450.09;10460261;28;20054;-78
2023/06/11 15:41:17;;;;;;;0.30;0.25;;;;;;;32.61;47.03;101448.47;10452636;28;20080;-76
2023/06/11 15:46:19;;;;;;;0.57;0.40;;;;;;;32.70;46.00;101440.78;10453723;28;20043;-77
2023/06/11 15:51:21;;;;;;;0.20;0.20;;;;;;;32.54;46.87;101451.50;10452680;28;20045;-77
2023/06/11 15:56:23;;;;;;;1.27;0.73;;;;;;;33.03;50.05;101441.53;10436154;28;20083;-77
2023/06/11 16:01:24;;;;;;;0.32;0.32;;;;;;;32.89;47.13;101440.56;10451140;28;20072;-77
2023/06/11 16:06:26;;;;;;;0.20;0.20;;;;;;;32.30;46.09;101442.25;10453462;28;20041;-78
2023/06/11 16:11:28;;;;;;;0.70;0.47;;;;;;;32.22;45.59;101443.56;10457218;28;20048;-78
2023/06/11 16:16:29;;;;;;;0.98;0.43;;;;;;;32.55;47.79;101442.56;10443395;28;20111;-76
2023/06/11 16:21:31;;;;;;;0.70;0.50;;;;;;;32.22;46.52;101434.72;10431573;28;20045;-78
2023/06/11 16:26:33;;;;;;;0.30;0.30;;;;;;;32.61;48.50;101440.47;10447512;28;20055;-77
2023/06/11 16:31:35;;;;;;;0.65;0.55;;;;;;;32.01;45.47;101444.75;10425486;28;20044;-79
2023/06/11 16:36:38;;;;;;;0.15;0.15;;;;;;;32.08;45.45;101446.13;10453602;28;20474;-77
2023/06/11 16:41:39;;;;;;;1.20;0.90;;;;;;;32.30;48.01;101440.47;10449147;28;20052;-78
2023/06/11 16:46:41;;;;;;;0.40;0.40;;;;;;;31.90;46.47;101451.56;10427002;28;20412;-76
2023/06/11 16:51:43;;;;;;;0.63;0.60;;;;;;;31.70;46.62;101434.00;10445353;28;20055;-76
2023/06/11 16:56:45;;;;;;;0.50;0.40;;;;;;;32.11;47.38;101432.63;10435388;28;20063;-78
2023/06/11 17:01:46;;;;;;;0.55;0.47;;;;;;;31.85;47.42;101432.28;10464063;28;20041;-78
2023/06/11 17:06:48;;;;;;;0.65;0.45;;;;;;;31.77;48.58;101432.72;10447988;28;20136;-77
2023/06/11 17:11:50;;;;;;;0.75;0.73;;;;;;;31.86;45.48;101439.34;10433716;28;20041;-77
2023/06/11 17:16:51;;;;;;;0.90;0.55;;;;;;;31.38;44.00;101441.06;10442876;28;20049;-78
2023/06/11 17:21:53;;;;;;;0.73;0.40;;;;;;;31.96;47.01;101445.00;10447742;28;20159;-76
2023/06/11 17:26:55;;;;;;;0.63;0.38;;;;;;;31.83;47.34;101444.84;10438605;28;20045;-77
2023/06/11 17:31:56;;;;;;;0.40;0.25;;;;;;;31.54;46.66;101447.25;10449936;28;20053;-76
2023/06/11 17:36:58;;;;;;;0.50;0.20;;;;;;;31.55;45.52;101454.31;10433170;28;20052;-76
2023/06/11 17:42:01;;;;;;;1.25;0.15;;;;;;;31.40;42.59;101458.69;10435601;28;20411;-76
2023/06/11 17:47:02;;;;;;;0.30;0.30;;;;;;;31.42;43.93;101453.25;10439573;28;20087;-76
2023/06/11 17:52:04;;;;;;;0.63;0.35;;;;;;;31.10;42.94;101453.16;10456224;28;20048;-76
2023/06/11 17:57:06;;;;;;;0.43;0.30;;;;;;;31.02;41.76;101457.03;10444535;28;20055;-77
2023/06/11 18:02:08;;;;;;;0.35;0.20;;;;;;;31.15;44.47;101464.44;10455256;28;20135;-76
2023/06/11 18:07:10;;;;;;;0.32;0.20;;;;;;;30.88;42.53;101461.38;10446145;28;20048;-77
2023/06/11 18:12:11;;;;;;;0.10;0.10;;;;;;;30.53;45.40;101472.84;10430477;28;20412;-78
2023/06/11 18:17:14;;;;;;;1.20;0.75;;;;;;;29.78;48.89;101466.59;10443427;28;20045;-77
2023/06/11 18:22:16;;;;;;;1.13;0.40;;;;;;;30.23;47.54;101465.41;10459521;28;20048;-79
2023/06/11 18:27:18;;;;;;;0.57;0.57;;;;;;;29.98;46.96;101465.72;10460501;28;20036;-77
2023/06/11 18:32:20;;;;;;;0.20;0.20;;;;;;;30.04;48.35;101471.63;10443039;28;20120;-78
2023/06/11 18:37:21;;;;;;;0.32;0.30;;;;;;;29.62;53.90;101467.31;10442612;28;20132;-77
2023/06/11 18:42:24;;;;;;;0.95;0.40;;;;;;;28.18;69.44;101479.44;10459677;28;20045;-77
2023/06/11 18:47:25;;;;;;;1.10;0.80;;;;;;;27.90;71.33;101477.00;10458668;28;20487;-78
2023/06/11 18:52:27;;;;;;;0.52;0.40;;;;;;;27.73;69.18;101485.59;10458165;28;20092;-79
2023/06/11 18:57:29;;;;;;;0.43;0.20;;;;;;;27.40;68.12;101485.84;10441699;28;20083;-76
2023/06/11 19:02:30;;;;;;;0.28;0.20;;;;;;;27.45;71.84;101489.22;10459208;28;20033;-78
2023/06/11 19:07:33;;;;;;;0.57;0.22;;;;;;;27.16;69.61;101492.88;10440635;28;20475;-77
2023/06/11 19:12:35;;;;;;;0.93;0.28;;;;;;;26.81;75.72;101493.13;10437791;28;20056;-77
2023/06/11 19:17:37;;;;;;;0.40;0.30;;;;;;;26.59;73.93;101504.38;10447996;28;20522;-78
2023/06/11 19:22:39;;;;;;;0.30;0.30;;;;;;;26.28;77.20;101510.63;10469923;28;20045;-78
2023/06/11 19:27:40;;;;;;;0.30;0.30;;;;;;;26.04;75.34;101516.59;10459766;28;20102;-78
2023/06/11 19:32:42;;;;;;;1.95;0.90;;;;;;;26.10;74.44;101521.75;10458009;28;20068;-79
2023/06/11 19:37:45;;;;;;;0.25;0.15;;;;;;;25.84;83.19;101520.69;10437351;28;20059;-80
2023/06/11 19:42:46;;;;;;;0.20;0.20;;;;;;;25.69;79.46;101534.31;10471292;28;20051;-79
2023/06/11 19:47:48;;;;;;;0.00;0.00;;;;;;;25.62;77.46;101539.75;10456432;28;20383;-79
2023/06/11 19:59:44;;;;;;;0.00;0.00;;;;;;;25.02;80.17;101552.69;10457742;28;20040;-78
2023/06/11 20:04:46;;;;;;;1.80;1.02;;;;;;;25.34;75.12;101551.00;10437894;28;20140;-77
2023/06/11 20:09:48;;;;;;;0.50;0.13;;;;;;;25.55;72.06;101556.66;10431799;28;20075;-78
2023/06/11 20:14:49;;;;;;;0.38;0.32;;;;;;;25.16;73.70;101559.38;10452897;28;20049;-78
2023/06/11 20:19:51;;;;;;;0.45;0.30;;;;;;;24.97;70.43;101570.38;10437256;28;20405;-78
2023/06/11 20:24:53;;;;;;;0.13;0.13;;;;;;;25.25;67.16;101564.44;10454338;28;20059;-78
2023/06/11 20:29:55;;;;;;;0.00;0.00;;;;;;;24.94;73.31;101573.06;10453524;28;20045;-77
2023/06/11 20:34:56;;;;;;;0.20;0.20;;;;;;;24.48;76.38;101576.72;10452881;28;20068;-77
2023/06/11 20:39:58;;;;;;;0.32;0.25;;;;;;;24.89;70.41;101577.59;10451660;28;20131;-78
2023/06/11 20:45:00;;;;;;;0.10;0.10;;;;;;;24.39;74.57;101583.91;10444896;28;20045;-77
2023/06/11 20:50:02;;;;;;;0.20;0.20;;;;;;;24.27;79.49;101592.06;10445174;28;20044;-78
2023/06/11 20:55:04;;;;;;;0.50;0.30;;;;;;;23.87;73.42;101596.34;10452819;28;20057;-78
2023/06/11 21:00:08;;;;;;;0.08;0.08;;;;;;;23.64;79.14;101599.41;10436844;28;20055;-77
2023/06/11 21:05:10;;;;;;;0.22;0.10;;;;;;;23.18;89.78;101595.75;10445869;28;20045;-78
2023/06/11 21:10:11;;;;;;;0.28;0.15;;;;;;;23.00;84.80;101602.13;10452804;28;20059;-78
2023/06/11 21:15:13;;;;;;;0.10;0.10;;;;;;;23.16;86.71;101596.66;10440894;28;20041;-78
2023/06/11 21:20:15;;;;;;;0.35;0.25;;;;;;;22.94;87.05;101589.94;10446607;28;20045;-78
2023/06/11 21:25:17;;;;;;;0.10;0.10;;;;;;;22.64;88.62;101584.25;10454194;28;20055;-80
2023/06/11 21:30:21;;;;;;;0.17;0.17;;;;;;;22.48;89.01;101588.00;10460230;28;20048;-78
2023/06/11 21:35:23;;;;;;;0.47;0.40;;;;;;;22.44;91.72;101581.03;10448993;28;20046;-79
2023/06/11 21:40:24;;;;;;;0.52;0.40;;;;;;;22.59;84.68;101586.06;10461299;28;20140;-79
2023/06/11 21:45:26;;;;;;;0.28;0.28;;;;;;;22.42;87.63;101578.44;10458746;28;20044;-79
2023/06/11 21:50:28;;;;;;;0.00;0.00;;;;;;;21.87;89.27;101582.53;10475867;28;20076;-79
2023/06/11 21:55:29;;;;;;;0.28;0.10;;;;;;;21.90;89.50;101576.38;10458645;28;20052;-80
2023/06/11 22:00:31;;;;;;;0.10;0.10;;;;;;;21.83;92.47;101584.31;10438999;28;20045;-79
2023/06/11 22:05:33;;;;;;;0.10;0.10;;;;;;;21.85;93.28;101579.94;10459655;28;20041;-78
2023/06/11 22:10:35;;;;;;;0.20;0.20;;;;;;;21.98;91.33;101582.41;10459341;28;20519;-81
2023/06/11 22:15:36;;;;;;;0.20;0.20;;;;;;;21.73;93.19;101587.91;10454428;28;20408;-79
2023/06/11 22:20:38;;;;;;;0.85;0.35;;;;;;;21.59;95.28;101589.78;10440261;28;20041;-79
2023/06/11 22:25:40;;;;;;;0.20;0.13;;;;;;;21.62;95.55;101589.78;10470661;28;20053;-79
2023/06/11 22:30:43;;;;;;;1.75;0.50;;;;;;;21.50;100.00;101591.56;10425903;28;20500;-79
2023/06/11 22:35:57;;;;;;;0.03;0.03;;;;;;;21.68;100.00;101593.19;10453919;28;20049;-79
2023/06/11 22:40:59;;;;;;;0.08;0.08;;;;;;;21.39;100.00;101586.44;10439860;28;20051;-78
2023/06/11 22:46:01;;;;;;;0.10;0.10;;;;;;;21.61;94.20;101598.53;10448027;28;20055;-81
2023/06/11 22:51:09;;;;;;;0.20;0.08;;;;;;;21.14;100.00;101598.84;10448470;28;20071;-81
2023/06/11 22:56:11;;;;;;;1.48;0.20;;;;;;;21.22;99.86;101604.91;10456258;28;20128;-80
2023/06/11 23:01:13;;;;;;;0.13;0.13;;;;;;;21.45;96.70;101605.59;10455638;28;20041;-80
2023/06/11 23:06:14;;;;;;;0.03;0.03;;;;;;;21.13;100.00;101612.84;10442239;28;20056;-80
2023/06/11 23:11:16;;;;;;;0.30;0.20;;;;;;;21.33;99.44;101614.47;10419011;28;20048;-80